Alligator Point, Florida
Current Conditions -  °F | °C
As of 5:53 PM on Wednesday 22 Oct 2014 (Local Time) from KTLH Reporting Station
Clear Clear  
Wind Chill: 78°   Ceiling: Unl
Heat Index: 78°   Visibility: 10mi
Dew Point: 44°   Wind: 9mph
Humidity: 30%   Direction: 10°N
Pressure: 29.98"   Gusts: NA
Location:  30.0223°N, 84.3911°W
Report Text: KTLH 222153Z 01008KT 10SM CLR 26/07 A2998 RMK AO2 SLP151 T02560067 $
Loading
Personal Weather Stations






























Interactive Weather Map New forecast layout! Learn more

10-Day Weather Forecast

Advertisements
Track Severe Weather on mobile